Time;durP1;ratioP1;P1;durP2;ratioP2;P2;SDS_P1;SDS_P2;PMS_P1;PMS_P2;Temp;Humidity;BMP_temperature;BMP_pressure;BME280_temperature;BME280_humidity;BME280_pressure;Samples;Min_cycle;Max_cycle;Signal;HPM_P1;HPM_P2
2022/05/29 00:01:52;;;;;;;12.60;1.15;;;11.00;99.90;;;;;;5087068;28;20537;-86
2022/05/29 00:04:19;;;;;;;3.67;1.20;;;10.70;99.90;;;;;;5068521;28;20032;-86
2022/05/29 00:06:48;;;;;;;10.50;1.38;;;10.00;99.90;;;;;;5086684;28;20056;-84
2022/05/29 00:09:19;;;;;;;8.07;1.63;;;10.00;99.90;;;;;;5069650;28;20181;-84
2022/05/29 00:11:46;;;;;;;7.65;2.03;;;10.00;99.90;;;;;;5072241;28;20083;-85
2022/05/29 00:14:11;;;;;;;11.60;1.70;;;10.10;99.90;;;;;;5057872;28;20074;-86
2022/05/29 00:16:37;;;;;;;11.27;3.00;;;10.00;99.90;;;;;;5072226;28;20044;-86
2022/05/29 00:19:03;;;;;;;12.10;1.88;;;10.10;99.90;;;;;;5076978;28;20036;-86
2022/05/29 00:21:34;;;;;;;13.20;1.60;;;10.50;99.90;;;;;;5076146;28;20075;-86
2022/05/29 00:24:00;;;;;;;7.80;1.92;;;10.10;99.90;;;;;;5106547;28;20040;-85
2022/05/29 00:26:26;;;;;;;14.55;2.25;;;10.10;99.90;;;;;;5074322;28;20044;-86
2022/05/29 00:28:54;;;;;;;14.43;2.10;;;10.20;99.90;;;;;;5087375;28;20162;-86
2022/05/29 00:31:20;;;;;;;8.57;1.33;;;11.50;99.90;;;;;;5070255;28;20055;-87
2022/05/29 00:33:46;;;;;;;9.65;2.10;;;11.40;99.90;;;;;;5084498;28;20043;-86
2022/05/29 00:36:15;;;;;;;14.90;2.63;;;11.50;99.90;;;;;;5086483;28;20094;-86
2022/05/29 00:38:43;;;;;;;8.85;2.17;;;10.20;99.90;;;;;;5067536;28;20499;-86
2022/05/29 00:41:23;;;;;;;11.38;1.65;;;10.50;99.90;;;;;;5085990;28;20048;-84
2022/05/29 00:44:12;;;;;;;6.55;1.80;;;10.30;99.90;;;;;;5085919;28;20048;-85
2022/05/29 00:46:39;;;;;;;10.25;2.22;;;10.10;99.90;;;;;;5066131;28;20181;-85
2022/05/29 00:49:10;;;;;;;8.23;1.50;;;10.90;99.90;;;;;;5069561;28;20488;-85
2022/05/29 00:51:42;;;;;;;10.02;2.10;;;10.60;99.90;;;;;;5083844;28;20145;-85
2022/05/29 00:54:09;;;;;;;10.00;2.08;;;10.70;99.90;;;;;;5068280;28;20048;-85
2022/05/29 00:56:37;;;;;;;9.18;1.77;;;11.10;99.90;;;;;;5085474;28;20055;-85
2022/05/29 00:59:05;;;;;;;11.30;2.53;;;10.20;99.90;;;;;;5084514;28;20040;-86
2022/05/29 01:01:31;;;;;;;20.02;3.42;;;11.10;99.90;;;;;;5086114;28;20515;-85
2022/05/29 01:03:57;;;;;;;11.30;2.10;;;10.50;99.90;;;;;;5083307;28;20097;-85
2022/05/29 01:06:23;;;;;;;9.75;2.08;;;11.00;99.90;;;;;;5085276;28;20054;-86
2022/05/29 01:08:49;;;;;;;9.85;2.05;;;11.10;99.90;;;;;;5050210;28;20114;-85
2022/05/29 01:11:28;;;;;;;9.40;2.17;;;10.60;99.90;;;;;;5068248;28;20047;-85
2022/05/29 01:14:32;;;;;;;7.95;2.08;;;10.20;99.90;;;;;;5085965;28;20492;-85
2022/05/29 01:17:42;;;;;;;14.35;2.40;;;9.60;99.90;;;;;;5083138;28;20131;-86
2022/05/29 01:20:28;;;;;;;8.70;1.90;;;10.10;99.90;;;;;;4989917;28;20569;-86
2022/05/29 01:23:22;;;;;;;8.10;1.73;;;10.20;99.90;;;;;;5079843;28;20097;-86
2022/05/29 01:26:25;;;;;;;6.78;1.63;;;10.20;99.90;;;;;;5082958;28;20044;-87
2022/05/29 01:29:01;;;;;;;4.55;1.52;;;10.20;99.90;;;;;;5067057;28;20597;-86
2022/05/29 01:31:52;;;;;;;13.38;2.47;;;10.20;99.90;;;;;;5085608;28;20040;-87
2022/05/29 01:34:42;;;;;;;10.07;1.70;;;10.70;99.90;;;;;;5065926;28;20542;-85
2022/05/29 01:37:09;;;;;;;8.30;2.47;;;10.20;99.90;;;;;;5084381;28;20493;-85
2022/05/29 01:39:50;;;;;;;7.85;1.80;;;10.90;99.90;;;;;;5070305;28;20108;-85
2022/05/29 01:42:26;;;;;;;10.55;1.92;;;10.90;99.90;;;;;;5072322;28;20035;-85
2022/05/29 01:44:59;;;;;;;9.18;1.75;;;10.20;99.90;;;;;;5103930;28;20083;-85
2022/05/29 01:47:29;;;;;;;;;;;11.50;99.90;;;;;;5069801;28;20044;-86
2022/05/29 01:50:01;;;;;;;9.30;2.05;;;10.30;99.90;;;;;;5067631;28;19924;-86
2022/05/29 01:52:47;;;;;;;10.32;1.77;;;11.00;99.90;;;;;;5085310;28;20067;-85
2022/05/29 01:55:28;;;;;;;11.05;1.92;;;10.30;99.90;;;;;;5066258;28;20444;-86
2022/05/29 01:58:00;;;;;;;9.38;2.40;;;10.30;99.90;;;;;;5067579;28;20536;-86
2022/05/29 02:00:26;;;;;;;9.23;1.70;;;10.70;99.90;;;;;;5066668;28;20059;-86
2022/05/29 02:03:00;;;;;;;16.63;1.88;;;11.00;99.90;;;;;;5066997;28;20055;-86
2022/05/29 02:05:37;;;;;;;7.93;1.83;;;10.30;99.90;;;;;;5085661;28;20056;-86
2022/05/29 02:08:12;;;;;;;10.88;2.05;;;10.40;99.90;;;;;;5066203;28;20043;-86
2022/05/29 02:10:44;;;;;;;6.65;1.63;;;10.40;99.90;;;;;;5084887;28;20036;-86
2022/05/29 02:13:31;;;;;;;3.78;0.93;;;10.80;99.90;;;;;;5083287;28;20051;-86
2022/05/29 02:16:17;;;;;;;3.92;1.45;;;10.40;99.90;;;;;;5066275;28;20028;-86
2022/05/29 02:19:20;;;;;;;7.90;1.63;;;11.10;99.90;;;;;;5088471;28;20532;-87
2022/05/29 02:21:57;;;;;;;6.83;1.40;;;10.40;99.90;;;;;;5071324;28;20048;-85
2022/05/29 02:24:29;;;;;;;6.10;1.73;;;10.40;99.90;;;;;;5089543;28;20401;-86
2022/05/29 02:27:03;;;;;;;4.72;1.40;;;11.60;99.90;;;;;;5091755;28;20245;-86
2022/05/29 02:29:29;;;;;;;10.27;0.95;;;11.40;99.90;;;;;;5085838;28;20048;-86
2022/05/29 02:32:10;;;;;;;7.00;1.58;;;10.50;99.90;;;;;;5054826;28;20081;-86
2022/05/29 02:34:38;;;;;;;12.95;1.70;;;10.50;99.90;;;;;;5087109;28;20044;-86
2022/05/29 02:37:33;;;;;;;7.07;1.60;;;10.50;99.90;;;;;;5087338;28;20557;-86
2022/05/29 02:40:39;;;;;;;7.55;0.98;;;11.70;99.90;;;;;;5057118;28;20133;-86
2022/05/29 02:43:14;;;;;;;3.85;1.23;;;10.50;99.90;;;;;;5068686;28;20032;-86
2022/05/29 02:46:00;;;;;;;5.88;1.38;;;10.50;99.90;;;;;;5071254;28;20512;-86
2022/05/29 02:48:56;;;;;;;6.15;1.52;;;10.50;99.90;;;;;;5092590;28;20048;-86
2022/05/29 02:51:36;;;;;;;10.18;1.80;;;10.50;99.90;;;;;;5082743;28;20059;-87
2022/05/29 02:54:02;;;;;;;6.53;1.67;;;10.50;99.90;;;;;;5097839;28;20417;-86
2022/05/29 02:56:29;;;;;;;10.13;1.63;;;10.40;99.90;;;;;;5089556;28;20040;-86
2022/05/29 02:58:58;;;;;;;10.52;1.70;;;10.40;99.90;;;;;;5086312;28;20056;-86
2022/05/29 03:01:44;;;;;;;7.03;1.20;;;11.00;99.90;;;;;;5087743;28;20089;-86
2022/05/29 03:04:28;;;;;;;8.85;1.83;;;10.40;99.90;;;;;;5068079;28;20059;-86
2022/05/29 03:07:18;;;;;;;8.88;1.35;;;10.30;99.90;;;;;;5084105;28;20405;-86
2022/05/29 03:09:47;;;;;;;7.55;2.03;;;10.30;99.90;;;;;;5072379;28;20054;-86
2022/05/29 03:12:31;;;;;;;4.80;1.50;;;11.10;99.90;;;;;;5091376;28;20055;-86
2022/05/29 03:15:10;;;;;;;9.60;1.58;;;10.30;99.90;;;;;;5079384;28;20111;-86
2022/05/29 03:17:55;;;;;;;8.43;1.20;;;10.30;99.90;;;;;;5092791;28;20055;-86
2022/05/29 03:20:24;;;;;;;8.07;1.70;;;10.30;99.90;;;;;;5074400;28;20087;-86
2022/05/29 03:23:14;;;;;;;10.73;1.40;;;10.30;99.90;;;;;;5093041;28;20073;-86
2022/05/29 03:26:06;;;;;;;8.30;1.50;;;10.30;99.90;;;;;;5071726;28;20604;-86
2022/05/29 03:28:44;;;;;;;4.63;1.30;;;10.30;99.90;;;;;;5090224;28;20052;-86
2022/05/29 03:31:21;;;;;;;5.78;1.20;;;10.30;99.90;;;;;;5073458;28;20044;-86
2022/05/29 03:33:48;;;;;;;7.72;1.23;;;10.40;99.90;;;;;;5088493;28;20046;-85
2022/05/29 03:36:15;;;;;;;9.82;1.25;;;11.30;99.90;;;;;;5074189;28;20103;-86
2022/05/29 03:38:42;;;;;;;8.32;0.90;;;10.80;99.90;;;;;;5072121;28;20087;-85
2022/05/29 03:41:15;;;;;;;7.35;1.20;;;11.40;99.90;;;;;;5075664;28;20055;-85
2022/05/29 03:43:42;;;;;;;5.73;1.10;;;10.40;99.90;;;;;;5090977;28;20040;-85
2022/05/29 03:46:09;;;;;;;7.07;1.10;;;10.40;99.90;;;;;;5073401;28;20511;-85
2022/05/29 03:48:36;;;;;;;6.00;1.33;;;10.40;99.90;;;;;;5090986;28;20254;-85
2022/05/29 03:51:08;;;;;;;8.48;1.25;;;10.40;99.90;;;;;;5071673;28;20145;-85
2022/05/29 03:53:34;;;;;;;8.68;1.50;;;11.70;99.90;;;;;;5092731;28;20048;-85
2022/05/29 03:56:00;;;;;;;5.90;0.93;;;10.90;99.90;;;;;;5071528;28;20040;-85
2022/05/29 03:58:26;;;;;;;9.52;1.35;;;10.80;99.90;;;;;;5090696;28;20044;-85
2022/05/29 04:00:53;;;;;;;6.97;1.08;;;11.60;99.90;;;;;;5089024;28;20040;-85
2022/05/29 04:03:19;;;;;;;5.38;1.15;;;10.40;99.90;;;;;;5073277;28;20039;-85
2022/05/29 04:05:45;;;;;;;9.80;1.75;;;10.40;99.90;;;;;;5091154;28;20109;-85
2022/05/29 04:13:42;;;;;;;11.27;1.45;;;10.40;99.90;;;;;;5074184;28;20493;-85
2022/05/29 04:16:09;;;;;;;16.67;1.55;;;11.60;99.90;;;;;;5072854;28;20074;-85
2022/05/29 04:18:35;;;;;;;7.05;1.67;;;10.90;99.90;;;;;;5090309;28;20090;-84
2022/05/29 04:21:00;;;;;;;10.30;1.67;;;11.10;99.90;;;;;;5089130;28;20123;-85
2022/05/29 04:23:26;;;;;;;12.60;1.80;;;10.40;99.90;;;;;;5087466;28;20429;-84
2022/05/29 04:25:52;;;;;;;8.07;1.70;;;10.40;99.90;;;;;;5067232;28;20062;-85
2022/05/29 04:28:18;;;;;;;11.35;1.65;;;11.30;99.90;;;;;;5070060;28;20097;-85
2022/05/29 04:30:44;;;;;;;12.32;1.70;;;10.90;99.90;;;;;;5084465;28;20047;-85
2022/05/29 04:33:10;;;;;;;8.52;1.65;;;11.50;99.90;;;;;;5085831;28;20044;-85
2022/05/29 04:35:44;;;;;;;11.45;2.28;;;10.90;99.90;;;;;;5068219;28;20046;-85
2022/05/29 04:38:11;;;;;;;5.90;1.63;;;10.40;99.90;;;;;;5084999;28;20048;-86
2022/05/29 04:40:41;;;;;;;13.35;1.30;;;10.70;99.90;;;;;;5053969;28;20040;-85
2022/05/29 04:43:08;;;;;;;9.63;1.52;;;11.40;99.90;;;;;;5074118;28;20047;-86
2022/05/29 04:45:34;;;;;;;13.43;1.52;;;11.60;99.90;;;;;;5100247;28;20687;-85
2022/05/29 04:48:00;;;;;;;10.20;1.70;;;10.40;99.90;;;;;;5091483;28;20043;-85
2022/05/29 04:50:26;;;;;;;10.88;1.80;;;10.40;99.90;;;;;;5087703;28;20120;-85
2022/05/29 04:52:52;;;;;;;11.57;1.65;;;11.30;99.90;;;;;;5068039;28;20151;-85
2022/05/29 04:55:18;;;;;;;8.15;1.50;;;11.30;99.90;;;;;;5084144;28;20044;-85
2022/05/29 04:57:44;;;;;;;12.25;1.63;;;10.40;99.90;;;;;;5086433;28;20040;-85
2022/05/29 05:00:10;;;;;;;10.68;2.05;;;11.20;99.90;;;;;;5066939;28;20520;-84
2022/05/29 05:02:36;;;;;;;10.15;1.50;;;10.40;99.90;;;;;;5052697;28;20040;-85
2022/05/29 05:05:03;;;;;;;14.10;1.52;;;10.50;99.90;;;;;;5083517;28;20059;-85
2022/05/29 05:07:28;;;;;;;14.52;1.98;;;10.50;99.90;;;;;;5051612;28;20390;-85
2022/05/29 05:09:54;;;;;;;11.00;1.67;;;11.50;99.90;;;;;;5084990;28;20055;-85
2022/05/29 05:12:20;;;;;;;12.25;1.80;;;11.50;99.90;;;;;;5068881;28;20040;-85
2022/05/29 05:14:45;;;;;;;6.53;1.60;;;11.50;99.90;;;;;;5071125;28;20051;-86
2022/05/29 05:17:11;;;;;;;10.10;1.52;;;11.20;99.90;;;;;;5088318;28;20481;-85
2022/05/29 05:19:37;;;;;;;9.85;1.50;;;10.70;99.90;;;;;;5104610;28;20032;-85
2022/05/29 05:22:04;;;;;;;12.68;1.35;;;10.70;99.90;;;;;;5093958;28;20119;-85
2022/05/29 05:24:29;;;;;;;8.70;2.47;;;10.70;99.90;;;;;;5087689;28;20105;-85
2022/05/29 05:26:58;;;;;;;9.02;1.75;;;11.70;99.90;;;;;;5085505;28;20490;-84
2022/05/29 05:29:24;;;;;;;10.98;2.00;;;10.70;99.90;;;;;;5067911;28;20104;-85
2022/05/29 05:31:50;;;;;;;13.90;2.03;;;10.70;99.90;;;;;;5084966;28;20065;-85
2022/05/29 05:34:16;;;;;;;13.02;1.90;;;10.70;99.90;;;;;;5084072;28;20048;-85
2022/05/29 05:36:42;;;;;;;11.88;1.48;;;11.40;99.90;;;;;;5085481;28;20036;-86
2022/05/29 05:39:08;;;;;;;9.77;1.65;;;11.50;99.90;;;;;;5082674;28;20182;-85
2022/05/29 05:41:33;;;;;;;10.73;1.50;;;11.00;99.90;;;;;;5085135;28;20071;-85
2022/05/29 05:43:59;;;;;;;11.55;1.77;;;11.40;99.90;;;;;;5084042;28;20036;-85
2022/05/29 05:46:25;;;;;;;10.40;1.77;;;11.80;99.90;;;;;;5067297;28;20075;-85
2022/05/29 05:48:51;;;;;;;9.13;1.77;;;10.70;99.90;;;;;;5067620;28;20064;-85
2022/05/29 05:51:17;;;;;;;13.20;1.80;;;11.70;99.90;;;;;;5065912;28;20043;-85
2022/05/29 05:53:42;;;;;;;18.08;1.70;;;11.60;99.90;;;;;;5085162;28;20040;-85
2022/05/29 05:56:14;;;;;;;11.35;1.77;;;11.10;99.90;;;;;;5065940;28;20032;-86
2022/05/29 05:58:42;;;;;;;9.02;1.88;;;10.90;99.90;;;;;;5067823;28;20040;-86
2022/05/29 06:01:11;;;;;;;13.10;2.10;;;11.10;99.90;;;;;;5083115;28;20126;-85
2022/05/29 06:03:37;;;;;;;14.35;1.38;;;11.10;99.90;;;;;;5066751;28;20094;-86
2022/05/29 06:06:03;;;;;;;9.52;1.67;;;11.60;99.90;;;;;;5067484;28;20048;-85
2022/05/29 06:08:29;;;;;;;9.90;1.58;;;12.10;99.90;;;;;;5082483;28;20044;-85
2022/05/29 06:10:55;;;;;;;11.68;1.70;;;11.70;99.90;;;;;;5053401;28;20455;-85
2022/05/29 06:13:21;;;;;;;12.23;1.38;;;12.40;99.90;;;;;;5084805;28;20044;-85
2022/05/29 06:15:47;;;;;;;6.88;0.73;;;11.20;99.90;;;;;;5073618;28;20059;-85
2022/05/29 06:18:14;;;;;;;8.45;1.55;;;11.40;99.90;;;;;;5086292;28;20039;-85
2022/05/29 06:20:41;;;;;;;7.60;1.05;;;12.20;99.90;;;;;;5067594;28;20130;-85
2022/05/29 06:23:07;;;;;;;5.10;1.13;;;11.40;99.90;;;;;;5067927;28;20105;-85
2022/05/29 06:25:33;;;;;;;7.85;1.33;;;12.70;99.90;;;;;;5049065;28;20123;-85
2022/05/29 06:28:00;;;;;;;5.20;0.98;;;11.50;99.90;;;;;;5084921;28;20197;-85
2022/05/29 06:30:28;;;;;;;6.88;0.85;;;12.30;99.90;;;;;;5065411;28;20131;-85
2022/05/29 06:32:54;;;;;;;7.95;1.25;;;11.60;99.90;;;;;;5067502;28;20043;-85
2022/05/29 06:35:21;;;;;;;5.53;0.60;;;12.10;99.90;;;;;;5082977;28;20400;-84
2022/05/29 06:37:47;;;;;;;7.30;0.82;;;11.60;99.90;;;;;;5066973;28;20076;-85
2022/05/29 06:40:13;;;;;;;7.50;0.75;;;11.50;99.90;;;;;;5067061;28;20083;-84
2022/05/29 06:42:40;;;;;;;5.05;0.98;;;11.40;99.90;;;;;;5082221;28;20040;-84
2022/05/29 06:45:07;;;;;;;9.18;1.23;;;11.40;99.90;;;;;;5069653;28;20052;-85
2022/05/29 06:47:33;;;;;;;5.03;0.82;;;11.40;99.90;;;;;;5069347;28;20048;-85
2022/05/29 06:49:59;;;;;;;9.77;1.42;;;12.00;99.90;;;;;;5088364;28;20146;-85
2022/05/29 06:52:29;;;;;;;12.02;1.20;;;11.30;99.90;;;;;;5070107;28;20122;-84
2022/05/29 06:54:55;;;;;;;10.80;1.13;;;11.80;99.90;;;;;;5088967;28;20052;-85
2022/05/29 06:57:36;;;;;;;6.13;1.08;;;11.30;99.90;;;;;;5087634;28;20044;-85
2022/05/29 07:08:32;;;;;;;9.82;1.85;;;12.30;99.90;;;;;;5085535;28;20105;-84
2022/05/29 07:11:10;;;;;;;6.53;1.20;;;12.30;99.90;;;;;;5088004;28;20493;-84
2022/05/29 07:13:36;;;;;;;8.23;1.25;;;11.30;99.90;;;;;;5085782;28;20043;-84
2022/05/29 07:16:03;;;;;;;6.05;1.08;;;11.10;99.90;;;;;;5087179;28;20047;-84
2022/05/29 07:18:29;;;;;;;6.03;1.13;;;11.00;99.90;;;;;;5069978;28;20131;-84
2022/05/29 07:20:59;;;;;;;5.95;1.10;;;11.10;99.90;;;;;;5086546;28;20051;-85
2022/05/29 07:23:24;;;;;;;9.15;0.98;;;11.00;99.90;;;;;;5071104;28;20098;-85
2022/05/29 07:25:51;;;;;;;8.02;1.05;;;11.00;99.90;;;;;;5085217;28;20443;-85
2022/05/29 07:28:16;;;;;;;5.50;0.75;;;11.00;99.90;;;;;;5070853;28;20076;-84
2022/05/29 07:30:42;;;;;;;4.35;1.52;;;11.80;99.90;;;;;;5086104;28;20067;-84
2022/05/29 07:33:08;;;;;;;6.72;0.70;;;11.80;99.90;;;;;;5088557;28;20800;-84
2022/05/29 07:35:33;;;;;;;7.40;1.35;;;12.00;99.90;;;;;;5069299;28;20040;-84
2022/05/29 07:38:01;;;;;;;7.18;0.90;;;12.30;99.90;;;;;;5070009;28;20044;-85
2022/05/29 07:40:26;;;;;;;4.45;0.80;;;11.60;99.90;;;;;;5054745;28;20097;-85
2022/05/29 07:45:37;;;;;;;4.25;1.00;;;11.50;99.90;;;;;;5086096;28;20047;-84
2022/05/29 07:48:03;;;;;;;1.55;0.40;;;11.50;99.90;;;;;;5097104;28;20082;-84
2022/05/29 07:50:28;;;;;;;5.97;0.93;;;11.60;99.90;;;;;;5075886;28;20044;-85
2022/05/29 07:52:54;;;;;;;4.97;0.57;;;11.60;99.90;;;;;;5073893;28;20596;-84
2022/05/29 07:55:21;;;;;;;4.88;0.57;;;12.60;99.90;;;;;;5087661;28;20040;-84
2022/05/29 07:57:47;;;;;;;5.85;0.50;;;11.60;99.90;;;;;;5072899;28;20085;-84
2022/05/29 08:00:15;;;;;;;4.80;0.75;;;12.00;99.90;;;;;;5087182;28;20055;-85
2022/05/29 08:02:41;;;;;;;4.63;0.70;;;11.50;99.90;;;;;;5089080;28;20051;-85
2022/05/29 08:05:10;;;;;;;3.42;0.65;;;11.40;99.90;;;;;;5070564;28;20051;-84
2022/05/29 08:07:36;;;;;;;7.82;0.80;;;11.30;99.90;;;;;;5070671;28;20056;-85
2022/05/29 08:10:04;;;;;;;6.00;0.90;;;12.50;99.90;;;;;;5088586;28;20040;-84
2022/05/29 08:12:31;;;;;;;8.25;0.57;;;11.30;99.90;;;;;;5089749;28;20040;-84
2022/05/29 08:15:00;;;;;;;5.80;0.60;;;11.80;99.90;;;;;;5093993;28;20129;-84
2022/05/29 08:17:25;;;;;;;4.32;0.65;;;12.10;99.90;;;;;;5089636;28;20175;-84
2022/05/29 08:19:51;;;;;;;2.70;0.60;;;11.40;99.90;;;;;;5091782;28;20044;-85
2022/05/29 08:22:19;;;;;;;5.18;0.70;;;11.40;99.90;;;;;;5089132;28;20468;-85
2022/05/29 08:30:40;;;;;;;6.47;0.70;;;11.30;99.90;;;;;;5086086;28;20047;-85
2022/05/29 08:33:08;;;;;;;8.10;0.98;;;11.60;99.90;;;;;;5087998;28;20505;-85
2022/05/29 08:35:36;;;;;;;4.97;0.63;;;11.30;99.90;;;;;;5068125;28;20051;-86
2022/05/29 08:38:03;;;;;;;5.28;0.60;;;12.50;99.90;;;;;;5085239;28;20438;-85
2022/05/29 08:40:30;;;;;;;10.00;1.48;;;12.10;99.90;;;;;;5070230;28;20075;-85
2022/05/29 08:42:56;;;;;;;13.02;1.52;;;11.50;99.90;;;;;;5086634;28;20052;-85
2022/05/29 08:45:23;;;;;;;7.32;1.00;;;12.00;99.90;;;;;;5089370;28;20043;-85
2022/05/29 08:47:50;;;;;;;7.35;0.90;;;11.70;99.90;;;;;;5070361;28;20124;-85
2022/05/29 08:50:54;;;;;;;4.47;1.48;;;12.20;99.90;;;;;;5090344;28;20047;-85
2022/05/29 08:53:38;;;;;;;6.22;0.70;;;11.80;99.90;;;;;;5090455;28;20084;-84
2022/05/29 08:56:35;;;;;;;9.98;0.60;;;11.80;99.90;;;;;;5069425;28;20051;-85
2022/05/29 08:59:29;;;;;;;5.22;0.57;;;11.80;99.90;;;;;;5086369;28;20070;-85
2022/05/29 09:02:10;;;;;;;2.45;0.50;;;11.80;99.90;;;;;;5088544;28;20401;-84
2022/05/29 09:04:46;;;;;;;7.95;0.57;;;12.80;99.90;;;;;;5087305;28;20050;-85
2022/05/29 09:07:17;;;;;;;4.60;0.65;;;12.80;99.90;;;;;;5086524;28;20052;-84
2022/05/29 09:10:00;;;;;;;5.03;0.45;;;12.30;99.90;;;;;;5086617;28;20044;-84
2022/05/29 09:12:32;;;;;;;4.45;0.95;;;12.10;99.90;;;;;;5086706;28;20502;-84
2022/05/29 09:15:15;;;;;;;2.35;0.50;;;11.80;99.90;;;;;;5071807;28;20117;-84
2022/05/29 09:17:51;;;;;;;7.85;1.30;;;11.80;99.90;;;;;;5080418;28;20108;-84
2022/05/29 09:20:23;;;;;;;7.88;1.25;;;11.80;99.90;;;;;;5099855;28;20055;-84
2022/05/29 09:22:49;;;;;;;3.85;0.75;;;11.80;99.90;;;;;;5088562;28;20103;-85
2022/05/29 09:25:39;;;;;;;5.20;1.30;;;11.80;99.90;;;;;;5086714;28;20856;-85
2022/05/29 09:28:15;;;;;;;5.60;1.05;;;11.90;99.90;;;;;;5081808;28;20813;-85
2022/05/29 09:30:41;;;;;;;5.05;0.70;;;12.00;99.90;;;;;;5068766;28;20046;-84
2022/05/29 09:33:28;;;;;;;6.28;0.88;;;12.20;99.90;;;;;;5087636;28;20048;-85
2022/05/29 09:36:14;;;;;;;5.03;0.90;;;12.30;99.90;;;;;;5089741;28;20514;-91
2022/05/29 09:38:52;;;;;;;7.78;0.90;;;12.40;99.90;;;;;;5072805;28;20048;-92
2022/05/29 09:41:19;;;;;;;4.50;0.88;;;12.60;99.90;;;;;;5075644;28;20532;-93
2022/05/29 09:44:04;;;;;;;3.33;0.50;;;12.60;99.90;;;;;;5071096;28;20075;-93
2022/05/29 09:46:33;;;;;;;5.00;1.23;;;12.70;99.90;;;;;;5087946;28;20101;-95
2022/05/29 09:52:04;;;;;;;2.42;0.55;;;12.80;99.90;;;;;;5096299;28;20048;-95
2022/05/29 09:54:34;;;;;;;3.95;0.85;;;13.00;99.90;;;;;;5098621;28;20044;-87
2022/05/29 09:57:22;;;;;;;4.00;0.55;;;13.20;99.90;;;;;;5072444;28;20131;-91
2022/05/29 09:59:50;;;;;;;12.77;0.90;;;13.20;99.90;;;;;;5069358;28;20054;-90
2022/05/29 10:02:26;;;;;;;4.97;1.05;;;13.20;99.90;;;;;;5068944;28;20044;-85
2022/05/29 10:04:57;;;;;;;5.57;0.82;;;14.30;99.90;;;;;;5083663;28;20337;-85
2022/05/29 10:07:41;;;;;;;5.70;0.77;;;13.00;99.90;;;;;;5088216;28;20052;-86
2022/05/29 10:10:30;;;;;;;8.73;1.45;;;12.90;99.90;;;;;;5078621;28;20047;-86
2022/05/29 10:12:58;;;;;;;5.97;1.10;;;12.80;99.90;;;;;;5104807;28;20052;-86
2022/05/29 10:15:27;;;;;;;4.82;0.88;;;12.70;99.90;;;;;;5086894;28;20412;-82
2022/05/29 10:18:01;;;;;;;4.72;0.63;;;12.50;99.90;;;;;;5085397;28;20040;-88
2022/05/29 10:20:40;;;;;;;9.70;1.67;;;12.60;99.90;;;;;;5085599;28;20602;-82
2022/05/29 10:23:11;;;;;;;6.00;0.85;;;12.40;99.90;;;;;;5084990;28;20048;-82
2022/05/29 10:25:52;;;;;;;4.78;1.02;;;12.30;99.90;;;;;;5083316;28;20040;-83
2022/05/29 10:28:21;;;;;;;3.85;0.50;;;12.40;99.90;;;;;;5068518;28;20050;-87
2022/05/29 10:31:02;;;;;;;4.68;1.00;;;12.50;99.90;;;;;;5065392;28;20039;-83
2022/05/29 10:33:31;;;;;;;3.22;1.05;;;13.00;99.90;;;;;;5083871;28;20102;-80
2022/05/29 10:36:10;;;;;;;4.70;0.93;;;13.00;99.90;;;;;;5084399;28;20117;-81
2022/05/29 10:38:37;;;;;;;6.53;0.88;;;13.20;99.90;;;;;;5084390;28;20513;-82
2022/05/29 10:41:04;;;;;;;9.02;1.02;;;13.30;99.90;;;;;;5084651;28;20048;-83
2022/05/29 10:43:50;;;;;;;5.15;0.65;;;13.20;99.90;;;;;;5082582;28;20051;-84
2022/05/29 10:46:35;;;;;;;5.07;0.80;;;13.00;99.90;;;;;;5085530;28;20055;-82
2022/05/29 10:51:59;;;;;;;10.02;1.08;;;12.90;99.90;;;;;;5085975;28;20350;-84
2022/05/29 10:54:46;;;;;;;6.40;0.93;;;12.90;99.90;;;;;;5086988;28;20052;-82
2022/05/29 10:57:21;;;;;;;5.75;0.70;;;12.90;99.90;;;;;;5083949;28;20040;-81
2022/05/29 11:00:08;;;;;;;8.40;1.30;;;12.90;99.90;;;;;;5084514;28;20044;-83
2022/05/29 11:05:58;;;;;;;7.50;0.90;;;13.00;99.90;;;;;;5083443;28;20185;-78
2022/05/29 11:08:26;;;;;;;3.38;0.77;;;13.00;99.90;;;;;;5084346;28;20095;-82
2022/05/29 11:11:04;;;;;;;6.35;0.70;;;13.10;99.90;;;;;;5083814;28;20040;-82
2022/05/29 11:13:48;;;;;;;8.20;0.93;;;13.20;99.90;;;;;;5083172;28;20054;-81
2022/05/29 11:16:40;;;;;;;5.13;0.82;;;13.20;99.90;;;;;;5084803;28;20036;-81
2022/05/29 11:19:40;;;;;;;4.63;0.73;;;13.30;99.90;;;;;;5081685;28;20068;-82
2022/05/29 11:22:20;;;;;;;3.80;0.68;;;13.40;99.90;;;;;;5081795;28;20127;-83
2022/05/29 11:24:58;;;;;;;6.20;1.42;;;13.40;99.90;;;;;;5084138;28;20048;-82
2022/05/29 11:27:30;;;;;;;6.25;1.02;;;13.50;99.90;;;;;;5083094;28;20055;-82
2022/05/29 11:30:25;;;;;;;6.40;0.93;;;13.60;99.90;;;;;;5082748;28;20968;-82
2022/05/29 11:33:09;;;;;;;6.35;1.25;;;13.80;99.90;;;;;;5087639;28;20067;-80
2022/05/29 11:36:00;;;;;;;7.22;0.95;;;14.00;99.90;;;;;;5087341;28;20098;-80
2022/05/29 11:38:52;;;;;;;4.63;0.95;;;14.10;99.90;;;;;;5087933;28;20459;-79
2022/05/29 11:41:31;;;;;;;6.32;1.10;;;14.10;99.90;;;;;;5088977;28;20048;-79
2022/05/29 11:44:06;;;;;;;7.88;1.23;;;14.00;99.90;;;;;;5087201;28;20040;-82
2022/05/29 11:52:37;;;;;;;3.22;0.77;;;13.70;99.90;;;;;;5085826;28;20693;-84
2022/05/29 11:55:20;;;;;;;3.17;0.55;;;13.60;99.90;;;;;;5087811;28;20544;-84
2022/05/29 11:58:15;;;;;;;8.43;1.40;;;13.80;99.90;;;;;;5086720;28;20055;-85
2022/05/29 12:00:59;;;;;;;8.02;0.73;;;13.20;99.90;;;;;;5086636;28;20044;-85
2022/05/29 12:03:44;;;;;;;7.63;1.00;;;13.00;99.90;;;;;;5086888;28;20117;-84
2022/05/29 12:06:22;;;;;;;11.15;1.13;;;12.90;99.90;;;;;;5068968;28;20052;-86
2022/05/29 12:08:57;;;;;;;5.50;0.73;;;13.10;99.90;;;;;;5084998;28;20060;-85
2022/05/29 12:11:58;;;;;;;8.60;0.88;;;12.80;99.90;;;;;;5088212;28;20265;-84
2022/05/29 12:14:59;;;;;;;6.63;1.33;;;12.80;99.90;;;;;;5085636;28;20063;-85
2022/05/29 12:17:39;;;;;;;5.55;0.80;;;12.80;99.90;;;;;;5074970;28;20063;-84
2022/05/29 12:20:31;;;;;;;10.35;1.00;;;13.00;99.90;;;;;;5089287;28;20524;-84
2022/05/29 12:23:01;;;;;;;6.13;1.05;;;12.80;99.90;;;;;;5090281;28;20050;-85
2022/05/29 12:25:54;;;;;;;4.25;1.20;;;12.60;99.90;;;;;;5072114;28;20658;-83
2022/05/29 12:28:29;;;;;;;4.47;0.82;;;12.60;99.90;;;;;;5090220;28;20102;-82
2022/05/29 12:30:56;;;;;;;7.60;0.85;;;12.60;99.90;;;;;;5086641;28;20056;-81
2022/05/29 12:33:23;;;;;;;9.55;0.98;;;13.10;99.90;;;;;;5090519;28;20048;-83
2022/05/29 12:36:11;;;;;;;6.07;0.75;;;14.00;99.90;;;;;;5094576;28;20044;-84
2022/05/29 12:38:49;;;;;;;9.95;1.15;;;12.90;99.90;;;;;;5092769;28;20594;-84
2022/05/29 12:41:41;;;;;;;4.22;1.20;;;13.00;99.90;;;;;;5089667;28;20056;-84
2022/05/29 12:44:23;;;;;;;6.40;0.80;;;13.20;99.90;;;;;;5085851;28;20075;-84
2022/05/29 12:47:25;;;;;;;5.40;0.82;;;13.50;99.90;;;;;;5086967;28;20477;-84
2022/05/29 12:49:57;;;;;;;8.75;1.10;;;13.80;99.90;;;;;;5090182;28;20131;-81
2022/05/29 12:52:48;;;;;;;3.92;0.90;;;13.90;99.90;;;;;;5085866;28;20079;-83
2022/05/29 12:55:29;;;;;;;7.20;1.00;;;13.00;99.90;;;;;;5087340;28;20181;-82
2022/05/29 12:58:11;;;;;;;5.00;0.70;;;13.90;99.90;;;;;;5089058;28;20044;-83
2022/05/29 13:00:51;;;;;;;5.63;1.30;;;13.90;99.90;;;;;;5087239;28;20408;-82
2022/05/29 13:03:47;;;;;;;7.28;1.15;;;13.90;99.90;;;;;;5088002;28;20455;-82
2022/05/29 13:06:38;;;;;;;6.88;0.93;;;14.00;99.90;;;;;;5088996;28;20130;-81
2022/05/29 13:09:24;;;;;;;3.35;0.60;;;14.10;99.90;;;;;;5088677;28;20080;-84
2022/05/29 13:11:54;;;;;;;5.53;0.73;;;14.20;99.90;;;;;;5090878;28;20388;-83
2022/05/29 13:14:25;;;;;;;6.30;0.85;;;14.20;99.90;;;;;;5087578;28;20043;-83
2022/05/29 13:17:09;;;;;;;4.25;0.60;;;14.20;99.90;;;;;;5089508;28;20083;-84
2022/05/29 13:19:56;;;;;;;5.38;0.93;;;14.30;99.90;;;;;;5090452;28;20480;-84
2022/05/29 13:22:45;;;;;;;7.28;1.02;;;14.30;99.90;;;;;;5087301;28;20040;-84
2022/05/29 13:25:12;;;;;;;10.05;1.10;;;14.30;99.90;;;;;;5080972;28;20063;-84
2022/05/29 13:27:38;;;;;;;5.60;1.20;;;15.50;99.90;;;;;;5089357;28;20044;-81
2022/05/29 13:30:07;;;;;;;8.05;1.25;;;14.30;99.90;;;;;;5070279;28;20040;-79
2022/05/29 13:32:34;;;;;;;5.97;1.05;;;14.30;99.90;;;;;;5087527;28;20086;-80
2022/05/29 13:35:03;;;;;;;7.40;1.33;;;14.40;99.90;;;;;;5086262;28;20043;-80
2022/05/29 13:37:32;;;;;;;7.78;1.27;;;14.40;99.90;;;;;;5087608;28;20109;-80
2022/05/29 13:40:29;;;;;;;5.82;1.02;;;14.60;99.90;;;;;;5087569;28;20055;-80
2022/05/29 13:43:15;;;;;;;6.75;1.08;;;14.60;99.90;;;;;;5087390;28;20089;-79
2022/05/29 13:45:44;;;;;;;6.78;1.02;;;14.70;99.90;;;;;;5088843;28;20044;-80
2022/05/29 13:48:17;;;;;;;6.95;1.20;;;14.70;99.90;;;;;;5087683;28;20043;-79
2022/05/29 13:50:42;;;;;;;;;;;14.70;99.90;;;;;;5089223;28;20439;-79
2022/05/29 13:53:32;;;;;;;8.35;0.77;;;14.60;99.90;;;;;;5087834;28;19919;-79
2022/05/29 13:56:06;;;;;;;7.05;1.27;;;14.60;99.90;;;;;;5085969;28;20039;-80
2022/05/29 14:04:29;;;;;;;8.52;1.00;;;14.60;99.90;;;;;;5085549;28;20127;-81